createdAt,value
2018-12-14T00:01:05.355Z,75.30
2018-12-14T00:03:36.291Z,75.30
2018-12-14T00:06:07.177Z,75.70
2018-12-14T00:08:36.168Z,75.10
2018-12-14T00:11:05.123Z,75.10
2018-12-14T00:13:35.172Z,74.80
2018-12-14T00:16:04.179Z,75.20
2018-12-14T00:18:33.123Z,75.50
2018-12-14T00:21:02.004Z,75.20
2018-12-14T00:23:30.911Z,75.10
2018-12-14T00:25:59.879Z,75.10
2018-12-14T00:28:28.777Z,74.90
2018-12-14T00:30:57.663Z,74.90
2018-12-14T00:33:26.543Z,75.10
2018-12-14T00:35:55.403Z,75.10
2018-12-14T00:38:24.320Z,75.70
2018-12-14T00:40:53.232Z,75.20
2018-12-14T00:43:23.064Z,75.20
2018-12-14T00:45:52.041Z,75.10
2018-12-14T00:48:21.044Z,75.10
2018-12-14T00:50:50.033Z,75.40
2018-12-14T00:53:18.995Z,75.30
2018-12-14T00:55:47.913Z,75.30
2018-12-14T00:58:20.432Z,75.50
2018-12-14T01:00:49.332Z,75.80
2018-12-14T01:03:18.292Z,75.70
2018-12-14T01:05:47.277Z,75.50
2018-12-14T01:08:16.181Z,75.30
2018-12-14T01:10:45.256Z,76.00
2018-12-14T01:13:14.210Z,76.00
2018-12-14T01:15:43.123Z,75.70
2018-12-14T01:18:12.216Z,75.70
2018-12-14T01:20:41.122Z,75.70
2018-12-14T01:23:10.032Z,75.50
2018-12-14T01:25:38.989Z,75.40
2018-12-14T01:28:08.036Z,75.60
2018-12-14T01:30:37.024Z,75.10
2018-12-14T01:33:05.903Z,75.10
2018-12-14T01:35:34.932Z,75.30
2018-12-14T01:38:03.977Z,75.50
2018-12-14T01:40:32.992Z,75.10
2018-12-14T01:43:01.883Z,75.40
2018-12-14T01:45:30.844Z,75.40
2018-12-14T01:47:59.748Z,75.40
2018-12-14T01:50:28.743Z,76.20
2018-12-14T01:52:57.750Z,75.70
2018-12-14T01:55:26.750Z,76.00
2018-12-14T01:57:55.704Z,75.80
2018-12-14T02:00:24.712Z,76.20
2018-12-14T02:02:53.812Z,75.40
2018-12-14T02:05:23.430Z,75.70
2018-12-14T02:07:52.551Z,75.70
2018-12-14T02:10:21.641Z,75.50
2018-12-14T02:12:50.556Z,75.70
2018-12-14T02:15:19.551Z,75.80
2018-12-14T02:17:48.485Z,75.70
2018-12-14T02:20:17.403Z,75.80
2018-12-14T02:22:46.405Z,75.60
2018-12-14T02:25:15.347Z,76.00
2018-12-14T02:27:44.217Z,75.80
2018-12-14T02:30:24.454Z,76.30
2018-12-14T02:32:53.329Z,75.70
2018-12-14T02:35:23.148Z,75.80
2018-12-14T02:37:52.352Z,76.40
2018-12-14T02:40:21.296Z,76.00
2018-12-14T02:42:50.335Z,76.00
2018-12-14T02:45:19.231Z,75.80
2018-12-14T02:47:48.337Z,75.90
2018-12-14T02:50:17.326Z,75.50
2018-12-14T02:52:46.314Z,75.40
2018-12-14T02:55:15.220Z,75.50
2018-12-14T02:57:44.131Z,75.80
2018-12-14T03:00:13.405Z,75.90
2018-12-14T03:02:44.248Z,76.40
2018-12-14T03:05:13.342Z,76.40
2018-12-14T03:07:42.285Z,76.50
2018-12-14T03:10:11.193Z,75.60
2018-12-14T03:12:40.124Z,75.20
2018-12-14T03:15:09.273Z,75.70
2018-12-14T03:17:38.297Z,75.50
2018-12-14T03:20:08.303Z,76.00
2018-12-14T03:22:37.381Z,75.90
2018-12-14T03:25:06.513Z,75.60
2018-12-14T03:27:35.688Z,75.40
2018-12-14T03:30:06.509Z,75.40
2018-12-14T03:32:35.421Z,75.40
2018-12-14T03:35:04.927Z,75.40
2018-12-14T03:37:33.847Z,75.00
2018-12-14T03:40:02.896Z,75.10
2018-12-14T03:42:34.674Z,75.20
2018-12-14T03:45:02.957Z,75.40
2018-12-14T03:47:31.867Z,75.60
2018-12-14T03:50:00.736Z,75.50
2018-12-14T03:52:29.907Z,75.70
2018-12-14T03:54:58.814Z,75.30
2018-12-14T03:57:28.844Z,75.20
2018-12-14T03:59:57.817Z,75.50
2018-12-14T04:02:26.805Z,75.20
2018-12-14T04:04:55.745Z,75.50
2018-12-14T04:07:24.614Z,75.40
2018-12-14T04:09:54.613Z,75.80
2018-12-14T04:12:23.539Z,75.90
2018-12-14T04:14:52.544Z,75.50
2018-12-14T04:17:21.464Z,75.80
2018-12-14T04:19:50.396Z,75.80
2018-12-14T04:22:19.280Z,75.80
2018-12-14T04:24:48.156Z,75.40
2018-12-14T04:27:17.053Z,75.50
2018-12-14T04:29:45.955Z,75.60
2018-12-14T04:32:14.828Z,75.30
2018-12-14T04:34:43.712Z,75.20
2018-12-14T04:37:12.656Z,75.00
2018-12-14T04:39:41.665Z,75.50
2018-12-14T04:42:10.663Z,75.30
2018-12-14T04:44:39.613Z,74.90
2018-12-14T04:47:08.917Z,75.10
2018-12-14T04:49:38.063Z,75.10
2018-12-14T04:52:10.884Z,74.70
2018-12-14T04:54:39.985Z,75.00
2018-12-14T04:57:09.190Z,75.20
2018-12-14T04:59:38.181Z,75.40
2018-12-14T05:02:07.245Z,75.30
2018-12-14T05:04:36.232Z,74.70
2018-12-14T05:07:05.164Z,74.50
2018-12-14T05:09:36.175Z,74.80
2018-12-14T05:12:05.099Z,74.40
2018-12-14T05:14:34.356Z,75.00
2018-12-14T05:17:03.240Z,75.20
2018-12-14T05:19:32.375Z,75.20
2018-12-14T05:22:01.542Z,74.80
2018-12-14T05:24:30.565Z,74.10
2018-12-14T05:26:59.845Z,74.50
2018-12-14T05:29:28.753Z,74.50
2018-12-14T05:31:57.643Z,74.70
2018-12-14T05:34:26.562Z,74.30
2018-12-14T05:36:55.559Z,75.30
2018-12-14T05:39:24.458Z,75.20
2018-12-14T05:41:54.377Z,75.10
2018-12-14T05:44:23.350Z,74.50
2018-12-14T05:46:52.363Z,75.10
2018-12-14T05:49:21.268Z,75.00
2018-12-14T05:51:50.176Z,74.90
2018-12-14T05:54:19.140Z,74.60
2018-12-14T05:56:48.193Z,74.50
2018-12-14T06:02:20.621Z,75.00
2018-12-14T06:04:49.531Z,74.90
2018-12-14T06:07:18.437Z,74.50
2018-12-14T06:09:47.316Z,74.30
2018-12-14T06:12:16.221Z,74.50
2018-12-14T06:14:45.095Z,74.40
2018-12-14T06:17:14.024Z,74.40
2018-12-14T06:19:42.908Z,74.70
2018-12-14T06:22:11.877Z,75.80
2018-12-14T06:24:40.768Z,74.90
2018-12-14T06:27:09.672Z,74.80
2018-12-14T06:29:38.612Z,74.60
2018-12-14T06:32:06.805Z,74.40
2018-12-14T06:34:35.018Z,75.10
2018-12-14T06:37:03.172Z,75.10
2018-12-14T06:39:31.273Z,74.60
2018-12-14T06:41:59.541Z,74.30
2018-12-14T06:44:28.695Z,74.40
2018-12-14T06:46:56.767Z,74.50
2018-12-14T06:49:24.867Z,74.50
2018-12-14T06:51:53.063Z,74.50
2018-12-14T06:54:21.131Z,74.40
2018-12-14T06:56:49.187Z,74.30
2018-12-14T06:59:17.303Z,74.20
2018-12-14T07:01:45.505Z,74.50
2018-12-14T07:04:13.628Z,75.00
2018-12-14T07:06:41.688Z,74.40
2018-12-14T07:09:09.761Z,74.80
2018-12-14T07:11:38.844Z,74.70
2018-12-14T07:14:06.924Z,74.40
2018-12-14T07:16:36.490Z,75.00
2018-12-14T07:19:05.351Z,74.80
2018-12-14T07:21:33.483Z,74.90
2018-12-14T07:24:01.628Z,75.10
2018-12-14T07:26:29.985Z,74.90
2018-12-14T07:28:58.055Z,74.60
2018-12-14T07:31:26.340Z,74.70
2018-12-14T07:33:54.431Z,74.70
2018-12-14T07:36:22.641Z,74.70
2018-12-14T07:38:51.775Z,74.10
2018-12-14T07:41:19.988Z,74.20
2018-12-14T07:43:48.044Z,74.10
2018-12-14T07:46:16.143Z,73.60
2018-12-14T07:48:44.216Z,74.40
2018-12-14T07:51:12.352Z,75.60
2018-12-14T07:53:40.440Z,74.50
2018-12-14T07:56:08.612Z,73.50
2018-12-14T07:58:38.506Z,73.80
2018-12-14T08:01:06.567Z,74.50
2018-12-14T08:03:34.644Z,74.40
2018-12-14T08:06:02.875Z,74.50
2018-12-14T08:08:30.948Z,74.70
2018-12-14T08:10:59.024Z,74.30
2018-12-14T08:13:27.103Z,73.60
2018-12-14T08:15:55.214Z,72.90
2018-12-14T08:18:23.303Z,73.50
2018-12-14T08:20:51.488Z,74.40
2018-12-14T08:23:19.556Z,73.30
2018-12-14T08:25:47.630Z,73.30
2018-12-14T08:28:15.704Z,73.80
2018-12-14T08:30:43.775Z,73.90
2018-12-14T08:33:11.841Z,72.90
2018-12-14T08:35:41.128Z,72.60
2018-12-14T08:38:09.379Z,72.90
2018-12-14T08:40:37.600Z,73.20
2018-12-14T08:43:05.674Z,72.40
2018-12-14T08:45:33.835Z,72.10
2018-12-14T08:48:02.210Z,72.70
2018-12-14T08:50:31.462Z,73.20
2018-12-14T08:52:59.524Z,72.40
2018-12-14T08:55:27.672Z,71.20
2018-12-14T08:57:55.744Z,71.70
2018-12-14T09:00:23.819Z,71.80
2018-12-14T09:02:51.992Z,72.70
2018-12-14T09:05:20.054Z,72.20
2018-12-14T09:07:48.100Z,71.80
2018-12-14T09:10:16.170Z,71.60
2018-12-14T09:12:44.289Z,71.70
2018-12-14T09:15:12.331Z,71.80
2018-12-14T09:17:40.408Z,71.30
2018-12-14T09:20:08.619Z,72.00
2018-12-14T09:22:36.734Z,72.00
2018-12-14T09:25:04.916Z,71.10
2018-12-14T09:27:33.398Z,71.80
2018-12-14T09:30:01.474Z,72.30
2018-12-14T09:32:30.755Z,71.40
2018-12-14T09:34:58.832Z,72.00
2018-12-14T09:37:26.951Z,70.70
2018-12-14T09:39:55.007Z,71.30
2018-12-14T09:42:23.057Z,70.30
2018-12-14T09:44:51.136Z,69.70
2018-12-14T09:47:19.178Z,69.90
2018-12-14T09:49:47.277Z,69.70
2018-12-14T09:52:15.360Z,70.00
2018-12-14T09:54:43.525Z,71.10
2018-12-14T09:57:11.603Z,70.40
2018-12-14T09:59:39.692Z,69.20
2018-12-14T10:02:07.766Z,69.20
2018-12-14T10:04:35.839Z,69.50
2018-12-14T10:10:37.509Z,69.40
2018-12-14T10:13:05.704Z,69.70
2018-12-14T10:15:33.773Z,68.80
2018-12-14T10:18:01.854Z,69.40
2018-12-14T10:20:31.348Z,70.50
2018-12-14T10:22:59.394Z,69.40
2018-12-14T10:25:27.455Z,68.80
2018-12-14T10:27:56.167Z,69.20
2018-12-14T10:30:24.465Z,69.40
2018-12-14T10:32:52.537Z,68.70
2018-12-14T10:35:20.700Z,68.80
2018-12-14T10:37:48.767Z,69.10
2018-12-14T10:40:16.890Z,69.20
2018-12-14T10:42:45.029Z,68.20
2018-12-14T10:45:13.101Z,68.20
2018-12-14T10:47:41.163Z,68.60
2018-12-14T10:50:09.332Z,67.70
2018-12-14T10:52:37.480Z,68.20
2018-12-14T10:55:05.960Z,68.00
2018-12-14T10:57:34.406Z,67.10
2018-12-14T11:00:02.734Z,67.10
2018-12-14T11:02:30.837Z,67.50
2018-12-14T11:04:58.928Z,66.10
2018-12-14T11:07:27.047Z,66.80
2018-12-14T11:09:55.177Z,66.30
2018-12-14T11:12:23.256Z,66.10
2018-12-14T11:14:51.314Z,66.80
2018-12-14T11:17:19.480Z,66.80
2018-12-14T11:19:47.557Z,66.50
2018-12-14T11:22:15.616Z,66.70
2018-12-14T11:24:43.679Z,66.80
2018-12-14T11:27:11.751Z,66.20
2018-12-14T11:29:40.077Z,66.80
2018-12-14T11:32:08.128Z,66.50
2018-12-14T11:34:36.227Z,65.60
2018-12-14T11:37:04.293Z,65.60
2018-12-14T11:39:32.380Z,65.40
2018-12-14T11:42:04.408Z,65.50
2018-12-14T11:44:33.010Z,64.80
2018-12-14T11:47:01.055Z,65.60
2018-12-14T11:49:29.118Z,65.30
2018-12-14T11:51:57.182Z,65.80
2018-12-14T11:54:25.350Z,65.50
2018-12-14T11:56:53.491Z,65.20
2018-12-14T11:59:21.580Z,64.80
2018-12-14T12:01:49.722Z,65.30
2018-12-14T12:04:17.807Z,66.20
2018-12-14T12:06:45.883Z,66.30
2018-12-14T12:09:13.945Z,65.60
2018-12-14T12:11:42.107Z,65.20
2018-12-14T12:14:10.219Z,64.80
2018-12-14T12:16:38.377Z,65.00
2018-12-14T12:19:06.444Z,64.80
2018-12-14T12:21:34.624Z,64.50
2018-12-14T12:24:02.732Z,64.70
2018-12-14T12:26:31.100Z,65.30
2018-12-14T12:28:59.170Z,64.40
2018-12-14T12:31:27.231Z,65.00
2018-12-14T12:33:55.287Z,64.60
2018-12-14T12:36:23.656Z,64.90
2018-12-14T12:38:51.727Z,64.70
2018-12-14T12:41:19.795Z,65.00
2018-12-14T12:43:47.883Z,64.30
2018-12-14T12:46:16.056Z,64.30
2018-12-14T12:48:44.341Z,64.40
2018-12-14T12:51:12.405Z,63.70
2018-12-14T12:53:40.485Z,64.30
2018-12-14T12:56:08.643Z,64.40
2018-12-14T12:58:36.719Z,64.90
2018-12-14T13:01:04.893Z,63.90
2018-12-14T13:03:32.946Z,64.40
2018-12-14T13:06:01.008Z,65.30
2018-12-14T13:08:30.040Z,64.60
2018-12-14T13:10:58.107Z,65.30
2018-12-14T13:13:26.173Z,65.10
2018-12-14T13:15:54.245Z,65.60
2018-12-14T13:18:22.323Z,64.90
2018-12-14T13:20:50.409Z,65.20
2018-12-14T13:23:18.525Z,64.60
2018-12-14T13:25:46.598Z,65.00
2018-12-14T13:28:14.764Z,64.90
2018-12-14T13:30:42.840Z,65.90
2018-12-14T13:33:11.127Z,65.50
2018-12-14T13:35:39.304Z,66.10
2018-12-14T13:38:07.377Z,66.90
2018-12-14T13:40:35.472Z,66.10
2018-12-14T13:43:03.587Z,65.30
2018-12-14T13:45:31.664Z,65.60
2018-12-14T13:47:59.826Z,65.50
2018-12-14T13:50:27.928Z,66.10
2018-12-14T13:52:57.688Z,65.20
2018-12-14T13:55:26.162Z,65.50
2018-12-14T13:57:54.320Z,65.20
2018-12-14T14:00:22.416Z,65.30
2018-12-14T14:02:50.597Z,65.10
2018-12-14T14:05:18.708Z,65.90
2018-12-14T14:07:46.881Z,66.40
2018-12-14T14:10:14.933Z,65.90
2018-12-14T14:12:42.984Z,65.90
2018-12-14T14:15:11.281Z,65.70
2018-12-14T14:17:39.478Z,66.60
2018-12-14T14:20:08.151Z,66.40
2018-12-14T14:22:37.317Z,66.40
2018-12-14T14:25:05.500Z,66.20
2018-12-14T14:27:33.567Z,67.00
2018-12-14T14:30:01.729Z,66.60
2018-12-14T14:32:29.832Z,65.80
2018-12-14T14:34:57.891Z,66.50
2018-12-14T14:37:25.977Z,66.20
2018-12-14T14:39:54.048Z,67.30
2018-12-14T14:42:23.188Z,66.70
2018-12-14T14:44:51.289Z,66.70
2018-12-14T14:47:19.404Z,67.40
2018-12-14T14:49:47.456Z,67.60
2018-12-14T14:52:15.512Z,67.20
2018-12-14T14:54:43.564Z,66.90
2018-12-14T14:57:11.656Z,67.10
2018-12-14T14:59:39.703Z,67.30
2018-12-14T15:02:07.921Z,67.00
2018-12-14T15:04:36.005Z,67.40
2018-12-14T15:07:04.132Z,68.10
2018-12-14T15:09:32.179Z,67.90
2018-12-14T15:12:00.227Z,67.80
2018-12-14T15:14:28.301Z,68.00
2018-12-14T15:16:56.391Z,68.00
2018-12-14T15:19:24.507Z,68.50
2018-12-14T15:21:52.557Z,68.10
2018-12-14T15:24:20.669Z,67.90
2018-12-14T15:26:48.752Z,68.70
2018-12-14T15:29:16.813Z,68.50
2018-12-14T15:31:45.535Z,68.20
2018-12-14T15:34:14.537Z,68.20
2018-12-14T15:36:42.796Z,68.30
2018-12-14T15:39:10.862Z,68.10
2018-12-14T15:41:40.896Z,69.00
2018-12-14T15:44:08.985Z,69.10
2018-12-14T15:46:40.827Z,69.00
2018-12-14T15:49:11.298Z,69.30
2018-12-14T15:51:41.229Z,68.70
2018-12-14T15:54:10.635Z,68.80
2018-12-14T15:56:40.308Z,68.50
2018-12-14T15:59:08.630Z,68.70
2018-12-14T16:01:36.751Z,68.80
2018-12-14T16:04:04.847Z,69.00
2018-12-14T16:06:32.985Z,69.10
2018-12-14T16:09:01.039Z,69.70
2018-12-14T16:11:29.935Z,69.50
2018-12-14T16:13:58.205Z,70.00
2018-12-14T16:16:26.287Z,69.30
2018-12-14T16:18:54.400Z,69.00
2018-12-14T16:21:22.592Z,69.40
2018-12-14T16:23:52.922Z,69.10
2018-12-14T16:26:21.933Z,69.10
2018-12-14T16:28:49.995Z,69.70
2018-12-14T16:31:18.271Z,69.30
2018-12-14T16:33:46.373Z,69.10
2018-12-14T16:36:14.418Z,69.30
2018-12-14T16:38:42.504Z,69.30
2018-12-14T16:41:10.567Z,69.70
2018-12-14T16:43:38.621Z,70.20
2018-12-14T16:46:06.709Z,70.00
2018-12-14T16:48:34.766Z,69.90
2018-12-14T16:51:02.849Z,69.70
2018-12-14T16:53:33.865Z,69.40
2018-12-14T16:56:01.979Z,69.80
2018-12-14T16:58:30.045Z,70.20
2018-12-14T17:00:59.256Z,70.10
2018-12-14T17:03:27.764Z,70.00
2018-12-14T17:05:55.814Z,69.90
2018-12-14T17:08:23.884Z,69.90
2018-12-14T17:10:51.947Z,70.50
2018-12-14T17:13:20.008Z,70.50
2018-12-14T17:15:48.060Z,70.00
2018-12-14T17:18:16.296Z,70.20
2018-12-14T17:20:44.375Z,70.30
2018-12-14T17:23:12.507Z,70.30
2018-12-14T17:25:40.548Z,70.10
2018-12-14T17:28:08.633Z,70.00
2018-12-14T17:30:36.698Z,70.50
2018-12-14T17:33:04.792Z,70.30
2018-12-14T17:35:32.958Z,69.90
2018-12-14T17:38:01.085Z,70.30
2018-12-14T17:40:30.178Z,70.00
2018-12-14T17:43:01.848Z,70.40
2018-12-14T17:45:30.655Z,70.00
2018-12-14T17:47:58.755Z,70.30
2018-12-14T17:50:26.834Z,70.30
2018-12-14T17:52:54.914Z,70.20
2018-12-14T17:55:22.987Z,70.80
2018-12-14T17:57:51.114Z,70.60
2018-12-14T18:00:19.205Z,70.30
2018-12-14T18:02:47.471Z,70.50
2018-12-14T18:05:15.531Z,70.60
2018-12-14T18:07:43.722Z,70.40
2018-12-14T18:10:11.810Z,70.40
2018-12-14T18:12:39.895Z,70.20
2018-12-14T18:15:07.966Z,70.50
2018-12-14T18:17:36.048Z,70.10
2018-12-14T18:20:04.383Z,70.50
2018-12-14T18:22:32.699Z,70.60
2018-12-14T18:25:01.127Z,70.60
2018-12-14T18:27:29.223Z,70.60
2018-12-14T18:29:57.751Z,70.50
2018-12-14T18:32:25.829Z,70.40
2018-12-14T18:34:53.911Z,70.60
2018-12-14T18:37:22.046Z,70.60
2018-12-14T18:39:51.396Z,70.30
2018-12-14T18:42:19.482Z,70.50
2018-12-14T18:44:57.947Z,70.50
2018-12-14T18:47:28.487Z,70.60
2018-12-14T18:49:56.630Z,70.50
2018-12-14T18:52:31.240Z,70.50
2018-12-14T18:54:59.428Z,70.30
2018-12-14T18:57:27.694Z,70.50
2018-12-14T18:59:55.824Z,70.70
2018-12-14T19:02:27.904Z,70.60
2018-12-14T19:04:56.011Z,70.50
2018-12-14T19:07:24.380Z,70.10
2018-12-14T19:09:52.905Z,70.30
2018-12-14T19:12:26.135Z,70.40
2018-12-14T19:14:55.423Z,70.20
2018-12-14T19:17:24.858Z,70.70
2018-12-14T19:19:55.522Z,70.50
2018-12-14T19:22:25.228Z,70.20
2018-12-14T19:24:54.330Z,70.30
2018-12-14T19:27:24.305Z,70.60
2018-12-14T19:29:53.366Z,70.50
2018-12-14T19:32:22.417Z,70.30
2018-12-14T19:34:51.378Z,70.20
2018-12-14T19:37:20.394Z,70.40
2018-12-14T19:39:53.595Z,70.50
2018-12-14T19:42:22.796Z,70.40
2018-12-14T19:44:52.393Z,70.20
2018-12-14T19:47:22.139Z,70.90
2018-12-14T19:49:51.177Z,70.50
2018-12-14T19:52:26.017Z,70.40
2018-12-14T19:54:55.124Z,70.00
2018-12-14T19:57:24.135Z,69.80
2018-12-14T19:59:53.091Z,70.00
2018-12-14T20:02:22.174Z,70.10
2018-12-14T20:04:51.192Z,70.10
2018-12-14T20:07:20.076Z,70.50
2018-12-14T20:09:48.985Z,70.20
2018-12-14T20:12:19.580Z,70.10
2018-12-14T20:14:48.538Z,70.50
2018-12-14T20:17:17.469Z,69.90
2018-12-14T20:19:46.496Z,69.90
2018-12-14T20:22:17.715Z,69.90
2018-12-14T20:24:47.048Z,69.60
2018-12-14T20:27:16.247Z,69.70
2018-12-14T20:29:45.156Z,69.70
2018-12-14T20:32:14.396Z,69.60
2018-12-14T20:34:43.475Z,69.90
2018-12-14T20:37:12.603Z,69.90
2018-12-14T20:39:42.017Z,69.40
2018-12-14T20:42:11.037Z,69.60
2018-12-14T20:44:40.195Z,69.50
2018-12-14T20:47:09.905Z,69.30
2018-12-14T20:49:38.947Z,69.60
2018-12-14T20:52:08.037Z,69.90
2018-12-14T20:54:38.351Z,70.00
2018-12-14T20:57:07.294Z,70.10
2018-12-14T20:59:36.327Z,69.80
2018-12-14T21:02:06.688Z,69.80
2018-12-14T21:04:35.696Z,69.70
2018-12-14T21:07:04.735Z,69.60
2018-12-14T21:09:34.252Z,69.60
2018-12-14T21:12:03.180Z,70.00
2018-12-14T21:14:32.470Z,70.00
2018-12-14T21:17:01.502Z,70.00
2018-12-14T21:19:30.417Z,70.40
2018-12-14T21:21:59.695Z,70.30
2018-12-14T21:24:28.705Z,70.40
2018-12-14T21:26:57.662Z,69.80
2018-12-14T21:29:26.969Z,70.10
2018-12-14T21:31:55.927Z,70.20
2018-12-14T21:34:24.811Z,70.50
2018-12-14T21:36:53.836Z,70.20
2018-12-14T21:39:22.760Z,70.10
2018-12-14T21:41:51.750Z,70.20
2018-12-14T21:44:20.712Z,70.40
2018-12-14T21:46:49.783Z,70.50
2018-12-14T21:49:18.717Z,70.10
2018-12-14T21:51:47.865Z,70.00
2018-12-14T21:54:16.835Z,69.90
2018-12-14T21:56:45.935Z,69.90
2018-12-14T21:59:14.862Z,69.90
2018-12-14T22:01:43.880Z,69.90
2018-12-14T22:04:12.878Z,70.00
2018-12-14T22:06:41.767Z,70.20
2018-12-14T22:09:10.964Z,70.20
2018-12-14T22:11:40.016Z,70.20
2018-12-14T22:14:09.729Z,70.70
2018-12-14T22:16:39.334Z,70.70
2018-12-14T22:19:08.554Z,70.80
2018-12-14T22:21:37.542Z,70.70
2018-12-14T22:24:06.464Z,70.80
2018-12-14T22:26:35.657Z,70.40
2018-12-14T22:29:04.647Z,70.60
2018-12-14T22:31:33.998Z,70.90
2018-12-14T22:34:02.973Z,70.80
2018-12-14T22:36:31.898Z,70.60
2018-12-14T22:39:00.944Z,70.80
2018-12-14T22:41:29.930Z,70.50
2018-12-14T22:43:58.924Z,70.80
2018-12-14T22:46:27.975Z,70.70
2018-12-14T22:48:57.016Z,69.90
2018-12-14T22:51:25.926Z,69.20
2018-12-14T22:53:54.872Z,68.80
2018-12-14T22:56:23.817Z,68.50
2018-12-14T22:58:52.859Z,67.70
2018-12-14T23:01:21.863Z,68.20
2018-12-14T23:03:50.776Z,67.90
2018-12-14T23:06:19.901Z,67.90
2018-12-14T23:08:48.965Z,67.80
2018-12-14T23:11:18.958Z,68.00
2018-12-14T23:13:47.848Z,68.00
2018-12-14T23:16:16.907Z,68.20
2018-12-14T23:18:45.946Z,66.80
2018-12-14T23:21:14.964Z,66.70
2018-12-14T23:23:44.029Z,66.60
2018-12-14T23:26:13.002Z,66.40
2018-12-14T23:28:42.016Z,66.70
2018-12-14T23:31:11.291Z,66.70
2018-12-14T23:33:40.256Z,67.20
2018-12-14T23:36:09.232Z,66.40
2018-12-14T23:38:38.193Z,66.70
2018-12-14T23:41:07.116Z,66.10
2018-12-14T23:43:37.052Z,66.50
2018-12-14T23:46:06.250Z,66.30
2018-12-14T23:48:35.203Z,67.00
2018-12-14T23:51:04.148Z,66.70
2018-12-14T23:53:33.208Z,66.40
2018-12-14T23:56:02.126Z,67.10
2018-12-14T23:58:36.621Z,66.10
